sensor_id;sensor_type;location;lat;lon;timestamp;pressure;altitude;pressure_sealevel;temperature;humidity
68994;BME280;56054;50.968;5.816;2023-03-01T00:03:03;102132.31;;;0.74;79.42
68994;BME280;56054;50.968;5.816;2023-03-01T00:06:10;102129.19;;;0.69;79.83
68994;BME280;56054;50.968;5.816;2023-03-01T00:09:18;102126.97;;;0.65;80.02
68994;BME280;56054;50.968;5.816;2023-03-01T00:12:25;102119.34;;;0.72;79.61
68994;BME280;56054;50.968;5.816;2023-03-01T00:15:38;102123.28;;;0.63;80.05
68994;BME280;56054;50.968;5.816;2023-03-01T00:18:56;102125.09;;;0.23;80.59
68994;BME280;56054;50.968;5.816;2023-03-01T00:22:03;102129.03;;;0.40;80.91
68994;BME280;56054;50.968;5.816;2023-03-01T00:25:43;102140.41;;;0.50;80.25
68994;BME280;56054;50.968;5.816;2023-03-01T00:28:59;102140.09;;;0.61;80.89
68994;BME280;56054;50.968;5.816;2023-03-01T00:32:32;102146.88;;;0.33;80.69
68994;BME280;56054;50.968;5.816;2023-03-01T00:36:15;102144.53;;;0.35;80.36
68994;BME280;56054;50.968;5.816;2023-03-01T00:39:23;102136.78;;;0.55;80.71
68994;BME280;56054;50.968;5.816;2023-03-01T00:42:30;102149.94;;;0.58;81.26
68994;BME280;56054;50.968;5.816;2023-03-01T00:45:38;102140.41;;;0.50;80.93
68994;BME280;56054;50.968;5.816;2023-03-01T00:48:45;102129.81;;;0.47;80.72
68994;BME280;56054;50.968;5.816;2023-03-01T00:51:53;102137.13;;;0.51;81.72
68994;BME280;56054;50.968;5.816;2023-03-01T00:55:23;102123.94;;;0.48;81.71
68994;BME280;56054;50.968;5.816;2023-03-01T00:58:30;102122.75;;;0.31;80.92
68994;BME280;56054;50.968;5.816;2023-03-01T01:01:38;102127.91;;;0.11;81.41
68994;BME280;56054;50.968;5.816;2023-03-01T01:04:54;102128.66;;;-0.10;82.79
68994;BME280;56054;50.968;5.816;2023-03-01T01:08:01;102136.19;;;-0.04;82.73
68994;BME280;56054;50.968;5.816;2023-03-01T01:11:14;102129.75;;;-0.08;82.90
68994;BME280;56054;50.968;5.816;2023-03-01T01:14:30;102127.16;;;0.05;82.79
68994;BME280;56054;50.968;5.816;2023-03-01T01:18:08;102128.28;;;0.14;82.51
68994;BME280;56054;50.968;5.816;2023-03-01T01:21:18;102115.22;;;-0.02;82.70
68994;BME280;56054;50.968;5.816;2023-03-01T01:24:26;102098.16;;;0.12;82.87
68994;BME280;56054;50.968;5.816;2023-03-01T01:27:33;102103.13;;;0.17;82.74
68994;BME280;56054;50.968;5.816;2023-03-01T01:30:42;102101.09;;;0.15;82.58
68994;BME280;56054;50.968;5.816;2023-03-01T01:33:55;102093.50;;;0.22;82.24
68994;BME280;56054;50.968;5.816;2023-03-01T01:37:03;102085.63;;;0.20;82.51
68994;BME280;56054;50.968;5.816;2023-03-01T01:40:19;102088.16;;;0.20;82.37
68994;BME280;56054;50.968;5.816;2023-03-01T01:43:33;102086.16;;;0.18;83.08
68994;BME280;56054;50.968;5.816;2023-03-01T01:46:56;102077.69;;;0.12;82.30
68994;BME280;56054;50.968;5.816;2023-03-01T01:50:04;102073.00;;;0.15;82.87
68994;BME280;56054;50.968;5.816;2023-03-01T01:53:17;102070.59;;;0.16;82.35
68994;BME280;56054;50.968;5.816;2023-03-01T01:56:26;102072.06;;;0.14;82.09
68994;BME280;56054;50.968;5.816;2023-03-01T01:59:43;102066.19;;;0.08;82.79
68994;BME280;56054;50.968;5.816;2023-03-01T02:03:20;102057.94;;;0.04;82.76
68994;BME280;56054;50.968;5.816;2023-03-01T02:06:44;102047.28;;;-0.07;82.67
68994;BME280;56054;50.968;5.816;2023-03-01T02:09:53;102046.13;;;-0.16;82.93
68994;BME280;56054;50.968;5.816;2023-03-01T02:13:03;102050.31;;;-0.16;83.23
68994;BME280;56054;50.968;5.816;2023-03-01T02:16:13;102048.94;;;-0.07;83.38
68994;BME280;56054;50.968;5.816;2023-03-01T02:23:07;102031.22;;;-0.06;83.72
68994;BME280;56054;50.968;5.816;2023-03-01T02:29:25;102030.31;;;-0.06;83.38
68994;BME280;56054;50.968;5.816;2023-03-01T02:32:34;102025.69;;;-0.16;83.66
68994;BME280;56054;50.968;5.816;2023-03-01T02:35:41;102012.09;;;-0.29;83.77
68994;BME280;56054;50.968;5.816;2023-03-01T02:38:57;102030.94;;;-0.22;83.11
68994;BME280;56054;50.968;5.816;2023-03-01T02:42:05;102027.91;;;-0.12;84.33
68994;BME280;56054;50.968;5.816;2023-03-01T02:45:13;102025.47;;;-0.17;83.19
68994;BME280;56054;50.968;5.816;2023-03-01T02:48:20;102041.16;;;-0.22;83.77
68994;BME280;56054;50.968;5.816;2023-03-01T02:51:45;102035.47;;;-0.26;83.40
68994;BME280;56054;50.968;5.816;2023-03-01T02:55:08;102036.13;;;-0.34;84.51
68994;BME280;56054;50.968;5.816;2023-03-01T02:58:15;102040.38;;;-0.28;84.38
68994;BME280;56054;50.968;5.816;2023-03-01T03:01:22;102036.63;;;-0.37;84.51
68994;BME280;56054;50.968;5.816;2023-03-01T03:04:55;102040.53;;;-0.53;84.05
68994;BME280;56054;50.968;5.816;2023-03-01T03:08:03;102040.06;;;-0.63;85.24
68994;BME280;56054;50.968;5.816;2023-03-01T03:11:20;102045.13;;;-0.71;85.30
68994;BME280;56054;50.968;5.816;2023-03-01T03:14:28;102033.91;;;-0.78;86.59
68994;BME280;56054;50.968;5.816;2023-03-01T03:17:41;102033.59;;;-0.74;86.00
68994;BME280;56054;50.968;5.816;2023-03-01T03:21:14;102037.06;;;-0.74;85.86
68994;BME280;56054;50.968;5.816;2023-03-01T03:24:24;102035.75;;;-0.77;86.63
68994;BME280;56054;50.968;5.816;2023-03-01T03:27:34;102036.16;;;-0.74;86.30
68994;BME280;56054;50.968;5.816;2023-03-01T03:30:55;102032.41;;;-0.83;86.68
68994;BME280;56054;50.968;5.816;2023-03-01T03:34:02;102037.84;;;-0.88;86.80
68994;BME280;56054;50.968;5.816;2023-03-01T03:37:09;102031.09;;;-0.87;87.15
68994;BME280;56054;50.968;5.816;2023-03-01T03:40:18;102028.72;;;-0.86;87.51
68994;BME280;56054;50.968;5.816;2023-03-01T03:43:25;102027.88;;;-0.99;87.75
68994;BME280;56054;50.968;5.816;2023-03-01T03:46:44;102020.97;;;-1.00;87.72
68994;BME280;56054;50.968;5.816;2023-03-01T03:49:53;102021.66;;;-0.81;87.05
68994;BME280;56054;50.968;5.816;2023-03-01T03:53:26;102023.59;;;-0.73;86.61
68994;BME280;56054;50.968;5.816;2023-03-01T03:56:59;102028.41;;;-0.81;86.80
68994;BME280;56054;50.968;5.816;2023-03-01T04:00:19;102021.47;;;-1.02;87.40
68994;BME280;56054;50.968;5.816;2023-03-01T04:03:35;102023.00;;;-1.10;87.47
68994;BME280;56054;50.968;5.816;2023-03-01T04:06:42;102008.06;;;-0.94;87.59
68994;BME280;56054;50.968;5.816;2023-03-01T04:09:54;102013.50;;;-1.31;88.62
68994;BME280;56054;50.968;5.816;2023-03-01T04:13:10;102020.88;;;-1.07;88.05
68994;BME280;56054;50.968;5.816;2023-03-01T04:16:18;102008.38;;;-1.18;89.07
68994;BME280;56054;50.968;5.816;2023-03-01T04:19:27;102004.84;;;-1.06;88.64
68994;BME280;56054;50.968;5.816;2023-03-01T04:23:15;102000.03;;;-1.30;88.82
68994;BME280;56054;50.968;5.816;2023-03-01T04:26:48;101995.63;;;-1.51;89.96
68994;BME280;56054;50.968;5.816;2023-03-01T04:29:55;101991.25;;;-1.19;90.39
68994;BME280;56054;50.968;5.816;2023-03-01T04:33:07;101977.75;;;-1.18;88.75
68994;BME280;56054;50.968;5.816;2023-03-01T04:36:16;101984.13;;;-1.35;89.66
68994;BME280;56054;50.968;5.816;2023-03-01T04:39:23;101977.69;;;-1.25;89.43
68994;BME280;56054;50.968;5.816;2023-03-01T04:42:30;101975.13;;;-1.25;89.95
68994;BME280;56054;50.968;5.816;2023-03-01T04:45:39;101970.03;;;-1.25;88.95
68994;BME280;56054;50.968;5.816;2023-03-01T04:48:48;101969.44;;;-1.10;89.17
68994;BME280;56054;50.968;5.816;2023-03-01T04:52:23;101967.25;;;-1.14;88.94
68994;BME280;56054;50.968;5.816;2023-03-01T04:59:59;101956.78;;;-1.56;90.60
68994;BME280;56054;50.968;5.816;2023-03-01T05:03:09;101948.84;;;-1.32;89.39
68994;BME280;56054;50.968;5.816;2023-03-01T05:06:25;101955.63;;;-1.25;89.16
68994;BME280;56054;50.968;5.816;2023-03-01T05:09:34;101954.34;;;-1.28;88.71
68994;BME280;56054;50.968;5.816;2023-03-01T05:12:43;101963.22;;;-1.65;90.08
68994;BME280;56054;50.968;5.816;2023-03-01T05:15:57;101965.56;;;-1.54;90.49
68994;BME280;56054;50.968;5.816;2023-03-01T05:19:04;101970.94;;;-1.58;91.06
68994;BME280;56054;50.968;5.816;2023-03-01T05:22:11;101977.19;;;-1.68;91.28
68994;BME280;56054;50.968;5.816;2023-03-01T05:25:32;101972.72;;;-1.77;91.92
68994;BME280;56054;50.968;5.816;2023-03-01T05:28:39;101962.16;;;-1.92;92.93
68994;BME280;56054;50.968;5.816;2023-03-01T05:32:12;101960.13;;;-1.95;92.98
68994;BME280;56054;50.968;5.816;2023-03-01T05:35:53;101960.69;;;-1.90;92.42
68994;BME280;56054;50.968;5.816;2023-03-01T05:39:00;101959.88;;;-1.84;92.82
68994;BME280;56054;50.968;5.816;2023-03-01T05:42:11;101966.28;;;-1.67;91.64
68994;BME280;56054;50.968;5.816;2023-03-01T05:45:18;101967.22;;;-1.80;91.62
68994;BME280;56054;50.968;5.816;2023-03-01T05:48:50;101954.00;;;-1.90;92.80
68994;BME280;56054;50.968;5.816;2023-03-01T05:51:59;101962.91;;;-1.74;92.56
68994;BME280;56054;50.968;5.816;2023-03-01T05:55:18;101960.66;;;-1.65;91.44
68994;BME280;56054;50.968;5.816;2023-03-01T05:58:28;101965.97;;;-1.76;90.84
68994;BME280;56054;50.968;5.816;2023-03-01T06:01:38;101952.72;;;-1.74;91.85
68994;BME280;56054;50.968;5.816;2023-03-01T06:04:45;101944.81;;;-1.82;91.50
68994;BME280;56054;50.968;5.816;2023-03-01T06:07:54;101955.94;;;-2.07;92.62
68994;BME280;56054;50.968;5.816;2023-03-01T06:11:03;101947.84;;;-1.72;91.84
68994;BME280;56054;50.968;5.816;2023-03-01T06:14:10;101944.38;;;-1.85;92.85
68994;BME280;56054;50.968;5.816;2023-03-01T06:17:19;101951.84;;;-1.87;91.87
68994;BME280;56054;50.968;5.816;2023-03-01T06:20:29;101944.56;;;-1.71;92.31
68994;BME280;56054;50.968;5.816;2023-03-01T06:23:38;101947.09;;;-1.71;91.63
68994;BME280;56054;50.968;5.816;2023-03-01T06:27:00;101947.44;;;-1.88;91.07
68994;BME280;56054;50.968;5.816;2023-03-01T06:30:10;101944.28;;;-1.80;91.21
68994;BME280;56054;50.968;5.816;2023-03-01T06:33:19;101951.56;;;-2.08;92.60
68994;BME280;56054;50.968;5.816;2023-03-01T06:36:46;101956.84;;;-2.20;94.61
68994;BME280;56054;50.968;5.816;2023-03-01T06:39:58;101962.56;;;-2.28;94.79
68994;BME280;56054;50.968;5.816;2023-03-01T06:43:05;101954.09;;;-2.08;95.20
68994;BME280;56054;50.968;5.816;2023-03-01T06:46:12;101959.69;;;-1.98;95.52
68994;BME280;56054;50.968;5.816;2023-03-01T06:49:29;101963.75;;;-1.93;93.63
68994;BME280;56054;50.968;5.816;2023-03-01T06:52:41;101954.69;;;-1.91;94.00
68994;BME280;56054;50.968;5.816;2023-03-01T06:55:58;101954.66;;;-1.78;93.13
68994;BME280;56054;50.968;5.816;2023-03-01T06:59:08;101960.53;;;-1.92;93.04
68994;BME280;56054;50.968;5.816;2023-03-01T07:02:18;101959.59;;;-1.80;92.98
68994;BME280;56054;50.968;5.816;2023-03-01T07:05:25;101962.88;;;-2.06;94.84
68994;BME280;56054;50.968;5.816;2023-03-01T07:08:32;101962.72;;;-1.88;94.86
68994;BME280;56054;50.968;5.816;2023-03-01T07:11:39;101957.63;;;-1.75;94.26
68994;BME280;56054;50.968;5.816;2023-03-01T07:14:48;101959.19;;;-1.96;95.67
68994;BME280;56054;50.968;5.816;2023-03-01T07:17:59;101959.09;;;-2.03;95.87
68994;BME280;56054;50.968;5.816;2023-03-01T07:21:11;101960.53;;;-1.92;95.68
68994;BME280;56054;50.968;5.816;2023-03-01T07:24:18;101956.84;;;-1.94;95.33
68994;BME280;56054;50.968;5.816;2023-03-01T07:27:29;101953.75;;;-1.79;95.41
68994;BME280;56054;50.968;5.816;2023-03-01T07:30:36;101954.88;;;-1.77;95.38
68994;BME280;56054;50.968;5.816;2023-03-01T07:33:56;101953.06;;;-1.78;95.54
68994;BME280;56054;50.968;5.816;2023-03-01T07:37:03;101956.78;;;-1.68;95.33
68994;BME280;56054;50.968;5.816;2023-03-01T07:40:13;101951.69;;;-1.56;94.78
68994;BME280;56054;50.968;5.816;2023-03-01T07:43:20;101954.97;;;-1.37;94.17
68994;BME280;56054;50.968;5.816;2023-03-01T07:46:39;101949.31;;;-1.54;94.59
68994;BME280;56054;50.968;5.816;2023-03-01T07:49:48;101948.78;;;-1.52;94.18
68994;BME280;56054;50.968;5.816;2023-03-01T07:52:58;101947.50;;;-1.55;94.02
68994;BME280;56054;50.968;5.816;2023-03-01T07:56:11;101948.34;;;-1.42;93.60
68994;BME280;56054;50.968;5.816;2023-03-01T07:59:18;101947.97;;;-1.45;93.84
68994;BME280;56054;50.968;5.816;2023-03-01T08:06:40;101940.16;;;-1.26;92.99
68994;BME280;56054;50.968;5.816;2023-03-01T08:10:06;101938.69;;;-1.24;92.78
68994;BME280;56054;50.968;5.816;2023-03-01T08:13:58;101945.06;;;-1.08;92.18
68994;BME280;56054;50.968;5.816;2023-03-01T08:17:24;101932.91;;;-1.03;91.85
68994;BME280;56054;50.968;5.816;2023-03-01T08:21:34;101931.22;;;-0.90;91.35
68994;BME280;56054;50.968;5.816;2023-03-01T08:25:07;101931.50;;;-0.74;90.82
68994;BME280;56054;50.968;5.816;2023-03-01T08:41:59;101903.19;;;-0.29;89.12
68994;BME280;56054;50.968;5.816;2023-03-01T08:45:09;101907.97;;;-0.17;89.05
68994;BME280;56054;50.968;5.816;2023-03-01T08:48:16;101903.78;;;-0.17;88.16
68994;BME280;56054;50.968;5.816;2023-03-01T08:51:49;101900.53;;;-0.09;87.84
68994;BME280;56054;50.968;5.816;2023-03-01T08:54:56;101912.31;;;0.11;87.55
68994;BME280;56054;50.968;5.816;2023-03-01T08:58:03;101906.88;;;0.22;87.13
68994;BME280;56054;50.968;5.816;2023-03-01T09:01:36;101893.72;;;0.26;86.43
68994;BME280;56054;50.968;5.816;2023-03-01T09:05:09;101907.06;;;0.31;86.51
68994;BME280;56054;50.968;5.816;2023-03-01T09:11:32;101906.78;;;0.49;85.46
68994;BME280;56054;50.968;5.816;2023-03-01T09:14:39;101905.50;;;0.60;84.99
68994;BME280;56054;50.968;5.816;2023-03-01T09:17:46;101909.53;;;0.72;84.56
68994;BME280;56054;50.968;5.816;2023-03-01T09:21:00;101899.66;;;0.75;83.68
68994;BME280;56054;50.968;5.816;2023-03-01T09:24:14;101903.69;;;0.88;82.27
68994;BME280;56054;50.968;5.816;2023-03-01T09:27:39;101906.66;;;1.05;81.96
68994;BME280;56054;50.968;5.816;2023-03-01T09:30:46;101912.50;;;1.18;81.40
68994;BME280;56054;50.968;5.816;2023-03-01T09:33:58;101897.47;;;1.28;80.43
68994;BME280;56054;50.968;5.816;2023-03-01T09:37:05;101901.50;;;1.34;80.54
68994;BME280;56054;50.968;5.816;2023-03-01T09:40:16;101908.28;;;1.40;79.77
68994;BME280;56054;50.968;5.816;2023-03-01T09:43:39;101906.22;;;1.59;78.85
68994;BME280;56054;50.968;5.816;2023-03-01T09:46:48;101891.97;;;1.61;78.32
68994;BME280;56054;50.968;5.816;2023-03-01T09:53:15;101891.00;;;1.68;77.70
68994;BME280;56054;50.968;5.816;2023-03-01T09:56:46;101890.41;;;1.85;76.58
68994;BME280;56054;50.968;5.816;2023-03-01T10:00:37;101892.41;;;1.87;75.86
68994;BME280;56054;50.968;5.816;2023-03-01T10:11:05;101880.41;;;2.09;74.40
68994;BME280;56054;50.968;5.816;2023-03-01T10:18:11;101861.63;;;2.32;72.87
68994;BME280;56054;50.968;5.816;2023-03-01T10:21:29;101847.75;;;2.53;72.26
68994;BME280;56054;50.968;5.816;2023-03-01T10:24:39;101849.59;;;2.77;71.31
68994;BME280;56054;50.968;5.816;2023-03-01T10:28:01;101844.78;;;2.57;70.87
68994;BME280;56054;50.968;5.816;2023-03-01T10:31:34;101844.34;;;2.91;70.17
68994;BME280;56054;50.968;5.816;2023-03-01T10:34:43;101829.47;;;3.12;70.88
68994;BME280;56054;50.968;5.816;2023-03-01T10:38:17;101819.25;;;3.05;69.33
68994;BME280;56054;50.968;5.816;2023-03-01T10:41:28;101828.72;;;2.74;69.80
68994;BME280;56054;50.968;5.816;2023-03-01T10:44:45;101830.59;;;2.91;69.61
68994;BME280;56054;50.968;5.816;2023-03-01T10:48:26;101818.53;;;3.06;69.63
68994;BME280;56054;50.968;5.816;2023-03-01T10:51:51;101820.91;;;3.27;68.51
68994;BME280;56054;50.968;5.816;2023-03-01T10:55:37;101823.09;;;3.24;69.06
68994;BME280;56054;50.968;5.816;2023-03-01T10:59:05;101801.91;;;3.34;68.78
68994;BME280;56054;50.968;5.816;2023-03-01T11:02:26;101809.63;;;3.50;67.92
68994;BME280;56054;50.968;5.816;2023-03-01T11:05:59;101802.59;;;3.40;67.24
68994;BME280;56054;50.968;5.816;2023-03-01T11:09:34;101795.72;;;3.63;67.31
68994;BME280;56054;50.968;5.816;2023-03-01T11:12:41;101802.16;;;3.60;65.99
68994;BME280;56054;50.968;5.816;2023-03-01T11:16:05;101798.88;;;3.61;65.20
68994;BME280;56054;50.968;5.816;2023-03-01T11:19:38;101801.16;;;3.67;65.17
68994;BME280;56054;50.968;5.816;2023-03-01T11:23:05;101799.00;;;3.78;65.55
68994;BME280;56054;50.968;5.816;2023-03-01T11:26:31;101788.47;;;3.84;66.35
68994;BME280;56054;50.968;5.816;2023-03-01T11:29:45;101784.44;;;3.95;65.43
68994;BME280;56054;50.968;5.816;2023-03-01T11:36:51;101773.84;;;4.16;63.65
68994;BME280;56054;50.968;5.816;2023-03-01T11:40:15;101777.78;;;4.13;63.47
68994;BME280;56054;50.968;5.816;2023-03-01T11:50:32;101776.06;;;4.54;62.47
68994;BME280;56054;50.968;5.816;2023-03-01T11:53:53;101779.47;;;4.45;61.41
68994;BME280;56054;50.968;5.816;2023-03-01T12:04:43;101770.38;;;4.40;61.28
68994;BME280;56054;50.968;5.816;2023-03-01T12:08:07;101768.47;;;4.55;62.14
68994;BME280;56054;50.968;5.816;2023-03-01T12:19:00;101752.94;;;4.38;61.34
68994;BME280;56054;50.968;5.816;2023-03-01T12:40:31;101718.53;;;5.12;60.68
68994;BME280;56054;50.968;5.816;2023-03-01T12:48:21;101702.31;;;5.22;57.11
68994;BME280;56054;50.968;5.816;2023-03-01T12:51:32;101707.16;;;5.28;57.77
68994;BME280;56054;50.968;5.816;2023-03-01T12:54:57;101698.81;;;5.48;57.60
68994;BME280;56054;50.968;5.816;2023-03-01T13:16:38;101667.25;;;5.68;54.60
68994;BME280;56054;50.968;5.816;2023-03-01T13:20:12;101659.97;;;5.72;53.45
68994;BME280;56054;50.968;5.816;2023-03-01T13:23:34;101658.44;;;5.83;53.50
68994;BME280;56054;50.968;5.816;2023-03-01T13:33:47;101637.78;;;6.00;53.93
68994;BME280;56054;50.968;5.816;2023-03-01T13:37:17;101635.97;;;5.91;54.30
68994;BME280;56054;50.968;5.816;2023-03-01T13:43:59;101631.78;;;6.19;54.15
68994;BME280;56054;50.968;5.816;2023-03-01T13:47:19;101627.91;;;6.05;53.38
68994;BME280;56054;50.968;5.816;2023-03-01T13:50:33;101632.00;;;6.03;52.96
68994;BME280;56054;50.968;5.816;2023-03-01T13:53:45;101624.84;;;6.09;53.17
68994;BME280;56054;50.968;5.816;2023-03-01T13:57:00;101615.91;;;6.06;52.24
68994;BME280;56054;50.968;5.816;2023-03-01T14:00:42;101617.59;;;6.05;50.98
68994;BME280;56054;50.968;5.816;2023-03-01T14:03:49;101620.44;;;6.17;50.61
68994;BME280;56054;50.968;5.816;2023-03-01T14:07:20;101617.41;;;6.12;50.13
68994;BME280;56054;50.968;5.816;2023-03-01T14:10:37;101620.09;;;6.22;50.67
68994;BME280;56054;50.968;5.816;2023-03-01T14:18:32;101598.22;;;6.19;51.22
68994;BME280;56054;50.968;5.816;2023-03-01T14:21:40;101601.06;;;6.31;50.24
68994;BME280;56054;50.968;5.816;2023-03-01T14:24:57;101591.31;;;6.37;50.04
68994;BME280;56054;50.968;5.816;2023-03-01T14:28:38;101593.94;;;6.28;51.55
68994;BME280;56054;50.968;5.816;2023-03-01T14:31:45;101590.91;;;6.32;51.21
68994;BME280;56054;50.968;5.816;2023-03-01T14:35:30;101582.66;;;6.36;51.11
68994;BME280;56054;50.968;5.816;2023-03-01T14:38:43;101585.91;;;6.25;50.44
68994;BME280;56054;50.968;5.816;2023-03-01T14:41:50;101580.56;;;6.32;50.71
68994;BME280;56054;50.968;5.816;2023-03-01T14:45:00;101569.53;;;6.25;50.14
68994;BME280;56054;50.968;5.816;2023-03-01T14:48:24;101571.94;;;6.23;50.58
68994;BME280;56054;50.968;5.816;2023-03-01T14:58:59;101566.69;;;6.13;49.56
68994;BME280;56054;50.968;5.816;2023-03-01T15:02:34;101558.63;;;6.18;48.74
68994;BME280;56054;50.968;5.816;2023-03-01T15:05:49;101560.56;;;6.21;48.71
68994;BME280;56054;50.968;5.816;2023-03-01T15:09:54;101558.00;;;6.21;48.62
68994;BME280;56054;50.968;5.816;2023-03-01T15:13:24;101551.84;;;6.10;48.45
68994;BME280;56054;50.968;5.816;2023-03-01T15:17:39;101548.75;;;6.14;48.86
68994;BME280;56054;50.968;5.816;2023-03-01T15:20:55;101544.22;;;6.12;48.45
68994;BME280;56054;50.968;5.816;2023-03-01T15:24:39;101543.13;;;6.18;48.55
68994;BME280;56054;50.968;5.816;2023-03-01T15:28:12;101544.53;;;6.15;49.02
68994;BME280;56054;50.968;5.816;2023-03-01T15:31:54;101538.13;;;6.20;49.37
68994;BME280;56054;50.968;5.816;2023-03-01T15:38:53;101520.72;;;6.09;49.41
68994;BME280;56054;50.968;5.816;2023-03-01T15:42:00;101522.41;;;6.08;50.99
68994;BME280;56054;50.968;5.816;2023-03-01T15:48:21;101511.03;;;6.06;51.94
68994;BME280;56054;50.968;5.816;2023-03-01T15:59:12;101501.41;;;6.14;52.93
68994;BME280;56054;50.968;5.816;2023-03-01T16:02:20;101496.41;;;6.15;53.29
68994;BME280;56054;50.968;5.816;2023-03-01T16:06:03;101497.78;;;6.12;52.71
68994;BME280;56054;50.968;5.816;2023-03-01T16:09:10;101488.72;;;6.07;53.14
68994;BME280;56054;50.968;5.816;2023-03-01T16:12:17;101488.44;;;6.04;53.58
68994;BME280;56054;50.968;5.816;2023-03-01T16:15:30;101493.31;;;6.00;53.71
68994;BME280;56054;50.968;5.816;2023-03-01T16:18:38;101508.00;;;6.02;53.95
68994;BME280;56054;50.968;5.816;2023-03-01T16:21:55;101502.09;;;6.03;54.11
68994;BME280;56054;50.968;5.816;2023-03-01T16:25:14;101503.00;;;6.03;53.80
68994;BME280;56054;50.968;5.816;2023-03-01T16:28:21;101501.78;;;5.99;52.93
68994;BME280;56054;50.968;5.816;2023-03-01T16:32:03;101503.94;;;5.95;54.07
68994;BME280;56054;50.968;5.816;2023-03-01T16:35:13;101505.16;;;5.90;52.33
68994;BME280;56054;50.968;5.816;2023-03-01T16:38:23;101503.78;;;5.93;52.91
68994;BME280;56054;50.968;5.816;2023-03-01T16:41:34;101505.63;;;5.94;53.20
68994;BME280;56054;50.968;5.816;2023-03-01T16:44:43;101501.41;;;5.86;52.76
68994;BME280;56054;50.968;5.816;2023-03-01T16:47:53;101504.16;;;5.79;52.97
68994;BME280;56054;50.968;5.816;2023-03-01T16:51:01;101496.31;;;5.69;53.75
68994;BME280;56054;50.968;5.816;2023-03-01T16:54:08;101487.38;;;5.65;53.82
68994;BME280;56054;50.968;5.816;2023-03-01T16:57:15;101486.66;;;5.57;54.05
68994;BME280;56054;50.968;5.816;2023-03-01T17:00:23;101488.16;;;5.55;54.26
68994;BME280;56054;50.968;5.816;2023-03-01T17:03:40;101487.44;;;5.48;54.34
68994;BME280;56054;50.968;5.816;2023-03-01T17:06:46;101482.63;;;5.42;54.94
68994;BME280;56054;50.968;5.816;2023-03-01T17:09:54;101480.97;;;5.34;55.95
68994;BME280;56054;50.968;5.816;2023-03-01T17:13:01;101488.13;;;5.28;56.36
68994;BME280;56054;50.968;5.816;2023-03-01T17:16:21;101495.25;;;5.30;57.82
68994;BME280;56054;50.968;5.816;2023-03-01T17:19:28;101493.53;;;5.40;57.32
68994;BME280;56054;50.968;5.816;2023-03-01T17:22:35;101491.28;;;5.34;57.32
68994;BME280;56054;50.968;5.816;2023-03-01T17:25:46;101495.50;;;5.42;56.93
68994;BME280;56054;50.968;5.816;2023-03-01T17:29:19;101510.47;;;5.55;57.75
68994;BME280;56054;50.968;5.816;2023-03-01T17:32:45;101513.94;;;5.02;57.88
68994;BME280;56054;50.968;5.816;2023-03-01T17:35:59;101522.56;;;5.02;58.02
68994;BME280;56054;50.968;5.816;2023-03-01T17:39:06;101528.19;;;4.98;58.52
68994;BME280;56054;50.968;5.816;2023-03-01T17:42:13;101529.69;;;4.87;59.06
68994;BME280;56054;50.968;5.816;2023-03-01T17:45:24;101534.09;;;4.80;59.35
68994;BME280;56054;50.968;5.816;2023-03-01T17:48:31;101540.00;;;4.70;59.11
68994;BME280;56054;50.968;5.816;2023-03-01T17:51:38;101530.47;;;4.60;59.17
68994;BME280;56054;50.968;5.816;2023-03-01T17:54:45;101537.72;;;4.56;59.07
68994;BME280;56054;50.968;5.816;2023-03-01T17:57:52;101536.38;;;4.59;59.11
68994;BME280;56054;50.968;5.816;2023-03-01T18:01:16;101529.53;;;4.42;59.57
68994;BME280;56054;50.968;5.816;2023-03-01T18:04:23;101539.53;;;4.39;59.44
68994;BME280;56054;50.968;5.816;2023-03-01T18:07:30;101531.34;;;4.35;60.08
68994;BME280;56054;50.968;5.816;2023-03-01T18:10:39;101537.22;;;4.25;60.04
68994;BME280;56054;50.968;5.816;2023-03-01T18:14:12;101535.56;;;4.25;60.58
68994;BME280;56054;50.968;5.816;2023-03-01T18:17:46;101529.34;;;4.23;60.36
68994;BME280;56054;50.968;5.816;2023-03-01T18:20:58;101525.09;;;4.15;60.56
68994;BME280;56054;50.968;5.816;2023-03-01T18:24:10;101528.09;;;4.11;61.13
68994;BME280;56054;50.968;5.816;2023-03-01T18:27:18;101516.28;;;4.04;60.87
68994;BME280;56054;50.968;5.816;2023-03-01T18:30:25;101524.28;;;3.99;61.78
68994;BME280;56054;50.968;5.816;2023-03-01T18:33:39;101508.09;;;4.00;61.57
68994;BME280;56054;50.968;5.816;2023-03-01T18:37:30;101507.91;;;3.90;61.53
68994;BME280;56054;50.968;5.816;2023-03-01T18:41:15;101496.56;;;3.88;61.62
68994;BME280;56054;50.968;5.816;2023-03-01T18:44:23;101498.53;;;3.81;61.65
68994;BME280;56054;50.968;5.816;2023-03-01T18:47:59;101501.28;;;3.83;62.18
68994;BME280;56054;50.968;5.816;2023-03-01T18:51:20;101493.81;;;3.77;61.88
68994;BME280;56054;50.968;5.816;2023-03-01T18:54:41;101498.66;;;3.74;62.18
68994;BME280;56054;50.968;5.816;2023-03-01T18:57:48;101506.06;;;3.71;62.59
68994;BME280;56054;50.968;5.816;2023-03-01T19:01:25;101499.19;;;3.63;62.75
68994;BME280;56054;50.968;5.816;2023-03-01T19:04:39;101508.59;;;3.62;62.69
68994;BME280;56054;50.968;5.816;2023-03-01T19:08:15;101498.72;;;3.50;64.27
68994;BME280;56054;50.968;5.816;2023-03-01T19:11:28;101497.63;;;3.48;62.91
68994;BME280;56054;50.968;5.816;2023-03-01T19:14:35;101496.75;;;3.56;63.62
68994;BME280;56054;50.968;5.816;2023-03-01T19:18:01;101491.59;;;3.47;63.29
68994;BME280;56054;50.968;5.816;2023-03-01T19:21:33;101490.34;;;3.43;63.25
68994;BME280;56054;50.968;5.816;2023-03-01T19:24:49;101488.25;;;3.39;63.25
68994;BME280;56054;50.968;5.816;2023-03-01T19:27:55;101495.84;;;3.47;63.75
68994;BME280;56054;50.968;5.816;2023-03-01T19:31:14;101502.47;;;3.45;63.94
68994;BME280;56054;50.968;5.816;2023-03-01T19:34:38;101500.22;;;3.48;65.54
68994;BME280;56054;50.968;5.816;2023-03-01T19:38:14;101496.44;;;3.53;65.72
68994;BME280;56054;50.968;5.816;2023-03-01T19:41:34;101499.69;;;3.34;66.04
68994;BME280;56054;50.968;5.816;2023-03-01T19:44:45;101489.69;;;3.29;66.91
68994;BME280;56054;50.968;5.816;2023-03-01T19:47:52;101494.19;;;3.22;66.38